createdAt,value
2023-04-29T00:02:11.835Z,8.45
2023-04-29T00:04:38.595Z,7.85
2023-04-29T00:07:05.205Z,8.38
2023-04-29T00:09:31.540Z,9.10
2023-04-29T00:11:58.068Z,7.38
2023-04-29T00:14:24.921Z,8.82
2023-04-29T00:16:51.705Z,8.52
2023-04-29T00:19:18.963Z,7.10
2023-04-29T00:21:45.380Z,8.82
2023-04-29T00:24:11.807Z,7.45
2023-04-29T00:26:38.463Z,9.10
2023-04-29T00:29:04.903Z,10.63
2023-04-29T00:31:32.796Z,7.55
2023-04-29T00:33:59.575Z,9.05
2023-04-29T00:36:26.340Z,9.60
2023-04-29T00:38:52.783Z,9.73
2023-04-29T00:41:19.608Z,6.82
2023-04-29T00:43:46.159Z,8.75
2023-04-29T00:46:13.705Z,9.88
2023-04-29T00:48:41.382Z,10.30
2023-04-29T00:51:08.079Z,9.00
2023-04-29T00:53:35.045Z,9.52
2023-04-29T00:56:01.888Z,10.60
2023-04-29T00:58:33.376Z,8.57
2023-04-29T01:01:00.296Z,9.05
2023-04-29T01:03:28.561Z,10.73
2023-04-29T01:06:01.767Z,10.05
2023-04-29T01:08:36.891Z,9.95
2023-04-29T01:11:03.253Z,9.40
2023-04-29T01:13:31.082Z,9.25
2023-04-29T01:16:06.620Z,9.63
2023-04-29T01:18:34.488Z,7.80
2023-04-29T01:21:01.669Z,8.07
2023-04-29T01:23:28.955Z,9.20
2023-04-29T01:25:55.681Z,8.50
2023-04-29T01:28:40.708Z,8.45
2023-04-29T01:31:09.584Z,9.15
2023-04-29T01:33:41.505Z,9.50
2023-04-29T01:36:14.022Z,10.00
2023-04-29T01:38:57.658Z,6.43
2023-04-29T01:41:39.491Z,9.18
2023-04-29T01:44:08.073Z,9.38
2023-04-29T01:46:35.326Z,8.52
2023-04-29T01:49:01.727Z,9.13
2023-04-29T01:51:28.442Z,9.38
2023-04-29T01:53:54.769Z,9.38
2023-04-29T01:56:21.146Z,9.40
2023-04-29T01:58:47.554Z,9.32
2023-04-29T02:01:14.235Z,8.90
2023-04-29T02:03:41.560Z,9.15
2023-04-29T02:06:08.067Z,7.60
2023-04-29T02:08:34.399Z,7.38
2023-04-29T02:11:00.786Z,8.52
2023-04-29T02:13:27.188Z,7.70
2023-04-29T02:15:53.556Z,7.13
2023-04-29T02:18:19.903Z,7.43
2023-04-29T02:20:46.258Z,8.07
2023-04-29T02:23:12.681Z,7.80
2023-04-29T02:25:39.051Z,7.28
2023-04-29T02:28:05.553Z,7.20
2023-04-29T02:30:31.936Z,7.72
2023-04-29T02:32:58.325Z,7.22
2023-04-29T02:35:24.785Z,7.03
2023-04-29T02:37:51.129Z,8.25
2023-04-29T02:40:17.468Z,6.68
2023-04-29T02:42:43.810Z,6.97
2023-04-29T02:45:10.504Z,8.45
2023-04-29T02:47:36.882Z,6.85
2023-04-29T02:50:04.862Z,8.02
2023-04-29T02:52:31.263Z,7.60
2023-04-29T02:54:57.590Z,8.20
2023-04-29T02:57:24.010Z,8.10
2023-04-29T02:59:51.489Z,8.80
2023-04-29T03:02:18.179Z,7.97
2023-04-29T03:04:44.639Z,8.38
2023-04-29T03:07:11.138Z,7.78
2023-04-29T03:09:37.447Z,8.68
2023-04-29T03:12:04.089Z,8.05
2023-04-29T03:14:30.497Z,8.07
2023-04-29T03:16:57.922Z,8.40
2023-04-29T03:19:24.352Z,8.50
2023-04-29T03:21:52.201Z,8.60
2023-04-29T03:24:20.143Z,9.13
2023-04-29T03:26:46.492Z,7.47
2023-04-29T03:29:12.813Z,7.15
2023-04-29T03:31:39.253Z,7.28
2023-04-29T03:34:05.605Z,5.78
2023-04-29T03:36:31.974Z,7.70
2023-04-29T03:38:58.279Z,8.23
2023-04-29T03:41:24.581Z,7.43
2023-04-29T03:43:51.750Z,7.25
2023-04-29T03:46:18.337Z,8.25
2023-04-29T03:48:44.756Z,6.90
2023-04-29T03:51:11.341Z,7.45
2023-04-29T03:53:37.765Z,7.43
2023-04-29T03:56:04.311Z,6.88
2023-04-29T03:58:30.820Z,7.97
2023-04-29T04:00:57.255Z,8.65
2023-04-29T04:03:25.769Z,7.72
2023-04-29T04:05:52.375Z,7.97
2023-04-29T04:08:18.789Z,7.75
2023-04-29T04:10:45.147Z,7.07
2023-04-29T04:13:11.459Z,8.13
2023-04-29T04:15:37.912Z,8.85
2023-04-29T04:18:04.281Z,8.23
2023-04-29T04:20:30.745Z,7.13
2023-04-29T04:22:57.157Z,8.38
2023-04-29T04:25:23.527Z,8.38
2023-04-29T04:27:49.837Z,8.02
2023-04-29T04:30:16.186Z,8.10
2023-04-29T04:32:42.588Z,8.77
2023-04-29T04:35:09.270Z,8.68
2023-04-29T04:37:35.629Z,8.88
2023-04-29T04:40:02.237Z,7.30
2023-04-29T04:42:28.580Z,7.80
2023-04-29T04:44:55.025Z,9.70
2023-04-29T04:47:21.336Z,7.90
2023-04-29T04:49:49.726Z,8.63
2023-04-29T04:52:16.311Z,7.35
2023-04-29T04:54:46.381Z,9.52
2023-04-29T04:57:12.750Z,9.77
2023-04-29T04:59:39.340Z,8.07
2023-04-29T05:02:05.757Z,8.15
2023-04-29T05:04:32.272Z,9.98
2023-04-29T05:06:58.749Z,10.07
2023-04-29T05:09:25.142Z,10.85
2023-04-29T05:11:51.475Z,10.82
2023-04-29T05:14:18.557Z,10.38
2023-04-29T05:16:46.502Z,10.73
2023-04-29T05:19:12.895Z,10.45
2023-04-29T05:21:39.214Z,9.90
2023-04-29T05:24:06.335Z,9.90
2023-04-29T05:26:32.677Z,7.22
2023-04-29T05:28:59.812Z,9.88
2023-04-29T05:31:26.469Z,7.65
2023-04-29T05:33:52.921Z,9.50
2023-04-29T05:36:19.253Z,8.27
2023-04-29T05:38:45.786Z,10.65
2023-04-29T05:41:14.040Z,7.90
2023-04-29T05:43:40.498Z,10.23
2023-04-29T05:46:07.302Z,8.88
2023-04-29T05:48:33.658Z,9.35
2023-04-29T05:51:00.112Z,10.73
2023-04-29T05:53:26.476Z,10.43
2023-04-29T05:55:52.864Z,10.98
2023-04-29T05:58:19.295Z,10.38
2023-04-29T06:00:45.774Z,11.55
2023-04-29T06:03:12.602Z,10.65
2023-04-29T06:05:39.390Z,9.32
2023-04-29T06:08:06.435Z,7.88
2023-04-29T06:10:33.627Z,8.95
2023-04-29T06:13:00.143Z,9.32
2023-04-29T06:15:26.587Z,9.45
2023-04-29T06:17:53.598Z,8.32
2023-04-29T06:20:20.182Z,8.57
2023-04-29T06:22:47.483Z,9.10
2023-04-29T06:25:14.286Z,9.25
2023-04-29T06:27:40.821Z,10.15
2023-04-29T06:30:07.521Z,10.02
2023-04-29T06:32:34.044Z,10.02
2023-04-29T06:35:01.329Z,8.80
2023-04-29T06:37:28.765Z,8.57
2023-04-29T06:39:55.294Z,7.80
2023-04-29T06:42:22.040Z,9.23
2023-04-29T06:44:48.422Z,8.68
2023-04-29T06:47:15.288Z,9.05
2023-04-29T06:49:44.043Z,8.68
2023-04-29T06:52:10.443Z,8.32
2023-04-29T06:54:36.889Z,8.48
2023-04-29T06:57:03.332Z,7.43
2023-04-29T06:59:29.666Z,6.35
2023-04-29T07:01:56.464Z,5.97
2023-04-29T07:04:23.008Z,5.63
2023-04-29T07:06:49.472Z,6.60
2023-04-29T07:09:15.898Z,5.20
2023-04-29T07:11:42.464Z,5.50
2023-04-29T07:14:08.958Z,5.25
2023-04-29T07:16:35.556Z,5.47
2023-04-29T07:19:01.929Z,5.47
2023-04-29T07:21:28.291Z,4.82
2023-04-29T07:23:55.424Z,4.07
2023-04-29T07:26:21.830Z,5.18
2023-04-29T07:28:48.388Z,5.10
2023-04-29T07:31:14.926Z,4.43
2023-04-29T07:33:41.350Z,5.90
2023-04-29T07:36:07.829Z,5.97
2023-04-29T07:38:34.755Z,5.63
2023-04-29T07:41:01.042Z,5.82
2023-04-29T07:43:27.416Z,5.28
2023-04-29T07:45:53.771Z,5.63
2023-04-29T07:48:21.243Z,5.30
2023-04-29T07:50:47.734Z,5.90
2023-04-29T07:53:16.055Z,4.72
2023-04-29T07:55:42.377Z,4.97
2023-04-29T07:58:08.743Z,5.38
2023-04-29T08:00:35.171Z,5.47
2023-04-29T08:03:01.644Z,4.65
2023-04-29T08:05:28.340Z,4.63
2023-04-29T08:07:54.829Z,5.30
2023-04-29T08:10:22.571Z,5.57
2023-04-29T08:12:49.596Z,5.30
2023-04-29T08:15:16.604Z,5.55
2023-04-29T08:17:42.991Z,5.78
2023-04-29T08:20:09.585Z,5.03
2023-04-29T08:22:36.553Z,4.50
2023-04-29T08:25:06.336Z,4.47
2023-04-29T08:27:32.769Z,4.88
2023-04-29T08:29:59.184Z,3.92
2023-04-29T08:32:25.744Z,4.78
2023-04-29T08:34:52.403Z,4.57
2023-04-29T08:37:19.581Z,4.05
2023-04-29T08:39:49.036Z,4.47
2023-04-29T08:42:15.991Z,4.47
2023-04-29T08:44:43.506Z,5.22
2023-04-29T08:47:09.910Z,4.90
2023-04-29T08:49:38.152Z,4.38
2023-04-29T08:52:04.932Z,4.32
2023-04-29T08:54:31.678Z,4.20
2023-04-29T08:56:59.243Z,4.22
2023-04-29T08:59:26.286Z,4.32
2023-04-29T09:01:54.122Z,4.28
2023-04-29T09:04:26.648Z,4.15
2023-04-29T09:06:56.232Z,4.30
2023-04-29T09:09:24.185Z,5.07
2023-04-29T09:11:50.675Z,4.47
2023-04-29T09:14:17.089Z,4.95
2023-04-29T09:16:46.641Z,4.78
2023-04-29T09:19:28.891Z,4.55
2023-04-29T09:21:58.147Z,4.35
2023-04-29T09:24:27.818Z,4.63
2023-04-29T09:26:55.068Z,3.45
2023-04-29T09:29:21.497Z,4.10
2023-04-29T09:31:48.501Z,4.38
2023-04-29T09:34:15.293Z,3.03
2023-04-29T09:36:41.880Z,4.55
2023-04-29T09:39:12.502Z,4.60
2023-04-29T09:41:59.111Z,4.00
2023-04-29T09:44:32.863Z,4.85
2023-04-29T09:47:04.149Z,4.00
2023-04-29T09:49:45.241Z,2.95
2023-04-29T09:52:16.458Z,4.80
2023-04-29T09:54:43.492Z,4.93
2023-04-29T09:57:10.735Z,4.65
2023-04-29T09:59:40.568Z,4.90
2023-04-29T10:02:16.612Z,4.50
2023-04-29T10:04:44.827Z,4.35
2023-04-29T10:07:14.414Z,4.78
2023-04-29T10:09:40.789Z,5.05
2023-04-29T10:12:07.490Z,4.03
2023-04-29T10:14:38.976Z,4.10
2023-04-29T10:17:11.380Z,4.20
2023-04-29T10:19:58.570Z,4.65
2023-04-29T10:22:40.433Z,4.40
2023-04-29T10:25:07.695Z,4.72
2023-04-29T10:27:34.268Z,4.18
2023-04-29T10:30:00.901Z,4.03
2023-04-29T10:32:30.568Z,3.53
2023-04-29T10:35:02.319Z,4.47
2023-04-29T10:37:28.697Z,4.40
2023-04-29T10:40:07.219Z,4.70
2023-04-29T10:42:41.903Z,4.10
2023-04-29T10:45:23.640Z,4.60
2023-04-29T10:48:02.183Z,4.45
2023-04-29T10:50:29.115Z,4.53
2023-04-29T10:52:55.555Z,4.03
2023-04-29T10:55:23.526Z,4.47
2023-04-29T10:57:49.946Z,3.38
2023-04-29T11:00:23.849Z,3.25
2023-04-29T11:02:50.478Z,4.20
2023-04-29T11:05:29.184Z,3.42
2023-04-29T11:08:16.559Z,3.35
2023-04-29T11:10:43.510Z,4.10
2023-04-29T11:13:24.041Z,3.53
2023-04-29T11:15:51.644Z,3.75
2023-04-29T11:18:18.808Z,3.25
2023-04-29T11:21:03.710Z,3.28
2023-04-29T11:23:30.335Z,3.65
2023-04-29T11:25:56.662Z,1.70
2023-04-29T11:28:23.994Z,4.10
2023-04-29T11:30:51.486Z,2.85
2023-04-29T11:33:19.680Z,3.70
2023-04-29T11:35:47.247Z,4.20
2023-04-29T11:38:13.875Z,3.92
2023-04-29T11:40:48.877Z,3.28
2023-04-29T11:43:18.897Z,4.38
2023-04-29T11:45:46.479Z,3.85
2023-04-29T11:48:19.638Z,4.97
2023-04-29T11:50:47.037Z,4.45
2023-04-29T11:53:13.714Z,3.92
2023-04-29T11:55:43.615Z,4.15
2023-04-29T11:58:10.108Z,2.92
2023-04-29T12:00:36.713Z,3.65
2023-04-29T12:03:08.317Z,4.40
2023-04-29T12:05:34.844Z,4.38
2023-04-29T12:08:01.273Z,4.85
2023-04-29T12:10:27.724Z,3.88
2023-04-29T12:12:54.199Z,3.67
2023-04-29T12:15:20.848Z,3.97
2023-04-29T12:17:47.379Z,4.47
2023-04-29T12:20:14.009Z,4.80
2023-04-29T12:22:43.737Z,4.68
2023-04-29T12:25:10.497Z,4.75
2023-04-29T12:27:39.573Z,4.15
2023-04-29T12:30:10.109Z,4.18
2023-04-29T12:32:37.149Z,4.45
2023-04-29T12:35:03.671Z,4.43
2023-04-29T12:37:30.005Z,4.22
2023-04-29T12:39:56.841Z,4.13
2023-04-29T12:42:23.336Z,4.10
2023-04-29T12:44:49.729Z,4.18
2023-04-29T12:47:16.889Z,3.88
2023-04-29T12:49:44.524Z,4.90
2023-04-29T12:52:11.105Z,4.35
2023-04-29T12:54:38.217Z,4.28
2023-04-29T12:57:04.640Z,3.28
2023-04-29T12:59:31.094Z,3.63
2023-04-29T13:01:57.563Z,3.58
2023-04-29T13:04:24.081Z,3.45
2023-04-29T13:06:54.380Z,3.83
2023-04-29T13:09:20.777Z,3.75
2023-04-29T13:11:47.246Z,3.13
2023-04-29T13:14:13.607Z,3.03
2023-04-29T13:16:40.968Z,2.88
2023-04-29T13:19:27.699Z,2.60
2023-04-29T13:21:53.883Z,3.30
2023-04-29T13:24:20.980Z,3.95
2023-04-29T13:26:49.585Z,3.17
2023-04-29T13:29:17.309Z,4.00
2023-04-29T13:31:44.142Z,3.78
2023-04-29T13:34:10.734Z,2.58
2023-04-29T13:36:37.150Z,2.25
2023-04-29T13:39:03.706Z,2.55
2023-04-29T13:41:34.029Z,3.08
2023-04-29T13:44:02.158Z,3.22
2023-04-29T13:46:31.158Z,3.25
2023-04-29T13:49:21.004Z,3.22
2023-04-29T13:57:34.561Z,2.70
2023-04-29T13:59:42.612Z,2.10
2023-04-29T14:04:43.579Z,1.88
2023-04-29T14:07:10.162Z,2.63
2023-04-29T14:09:36.564Z,2.22
2023-04-29T14:12:03.039Z,2.20
2023-04-29T14:14:29.355Z,2.80
2023-04-29T14:16:55.890Z,2.85
2023-04-29T14:19:22.388Z,2.95
2023-04-29T14:21:48.748Z,3.03
2023-04-29T14:24:15.214Z,2.70
2023-04-29T14:26:41.968Z,2.55
2023-04-29T14:29:08.983Z,3.00
2023-04-29T14:31:38.685Z,3.15
2023-04-29T14:34:05.549Z,2.92
2023-04-29T14:36:34.858Z,2.90
2023-04-29T14:39:01.258Z,2.03
2023-04-29T14:41:27.953Z,2.65
2023-04-29T14:43:54.393Z,3.05
2023-04-29T14:46:22.326Z,3.10
2023-04-29T14:48:49.392Z,2.65
2023-04-29T14:51:15.870Z,3.00
2023-04-29T14:53:42.964Z,3.50
2023-04-29T14:56:09.310Z,2.83
2023-04-29T14:58:35.712Z,2.25
2023-04-29T15:01:02.047Z,2.50
2023-04-29T15:03:28.479Z,2.42
2023-04-29T15:05:55.011Z,2.95
2023-04-29T15:08:21.737Z,3.03
2023-04-29T15:10:48.239Z,2.97
2023-04-29T15:13:14.731Z,2.80
2023-04-29T15:15:41.276Z,3.05
2023-04-29T15:18:08.899Z,2.70
2023-04-29T15:20:36.625Z,2.85
2023-04-29T15:23:03.817Z,2.58
2023-04-29T15:25:30.916Z,2.40
2023-04-29T15:27:59.005Z,2.38
2023-04-29T15:30:27.136Z,3.30
2023-04-29T15:32:54.534Z,2.90
2023-04-29T15:35:21.015Z,2.05
2023-04-29T15:37:47.460Z,2.22
2023-04-29T15:40:13.864Z,1.90
2023-04-29T15:42:40.380Z,1.98
2023-04-29T15:45:08.763Z,1.88
2023-04-29T15:47:35.469Z,2.42
2023-04-29T15:50:01.950Z,1.85
2023-04-29T15:52:28.295Z,2.33
2023-04-29T15:54:54.759Z,1.90
2023-04-29T15:57:21.383Z,1.65
2023-04-29T15:59:47.780Z,1.83
2023-04-29T16:02:15.300Z,1.98
2023-04-29T16:04:41.769Z,2.38
2023-04-29T16:07:08.309Z,1.95
2023-04-29T16:09:35.101Z,2.42
2023-04-29T16:12:02.196Z,1.63
2023-04-29T16:14:28.575Z,1.75
2023-04-29T16:16:55.025Z,1.60
2023-04-29T16:19:22.198Z,1.58
2023-04-29T16:21:48.588Z,1.33
2023-04-29T16:24:15.152Z,1.70
2023-04-29T16:26:41.607Z,1.52
2023-04-29T16:29:08.463Z,1.35
2023-04-29T16:31:34.905Z,1.67
2023-04-29T16:34:01.454Z,1.48
2023-04-29T16:36:27.934Z,1.38
2023-04-29T16:38:55.103Z,1.10
2023-04-29T16:41:23.226Z,1.50
2023-04-29T16:43:49.830Z,2.05
2023-04-29T16:46:16.290Z,2.03
2023-04-29T16:48:42.807Z,1.60
2023-04-29T16:51:09.694Z,1.20
2023-04-29T16:53:36.522Z,1.48
2023-04-29T16:56:03.089Z,1.65
2023-04-29T16:58:30.346Z,1.40
2023-04-29T17:00:56.870Z,1.45
2023-04-29T17:03:23.301Z,1.20
2023-04-29T17:05:49.748Z,1.42
2023-04-29T17:08:16.864Z,1.30
2023-04-29T17:10:43.918Z,1.42
2023-04-29T17:13:10.416Z,1.30
2023-04-29T17:15:36.765Z,1.67
2023-04-29T17:18:03.141Z,1.25
2023-04-29T17:20:29.528Z,1.13
2023-04-29T17:22:56.053Z,1.25
2023-04-29T17:25:22.519Z,1.20
2023-04-29T17:27:48.885Z,1.10
2023-04-29T17:30:15.393Z,1.55
2023-04-29T17:32:44.254Z,1.58
2023-04-29T17:35:11.081Z,1.73
2023-04-29T17:37:37.803Z,1.25
2023-04-29T17:40:04.626Z,1.33
2023-04-29T17:42:31.474Z,1.20
2023-04-29T17:44:57.884Z,1.85
2023-04-29T17:47:24.466Z,1.00
2023-04-29T17:49:52.088Z,0.80
2023-04-29T17:52:21.276Z,1.48
2023-04-29T17:54:48.755Z,1.23
2023-04-29T17:57:15.705Z,1.10
2023-04-29T17:59:42.055Z,1.17
2023-04-29T18:02:08.478Z,1.40
2023-04-29T18:04:34.842Z,2.00
2023-04-29T18:07:01.766Z,1.40
2023-04-29T18:09:28.166Z,1.45
2023-04-29T18:11:54.514Z,1.02
2023-04-29T18:14:20.833Z,1.73
2023-04-29T18:16:47.238Z,1.30
2023-04-29T18:19:13.869Z,1.02
2023-04-29T18:21:40.219Z,1.67
2023-04-29T18:24:06.931Z,0.98
2023-04-29T18:26:33.282Z,1.10
2023-04-29T18:28:59.665Z,1.63
2023-04-29T18:31:26.596Z,1.48
2023-04-29T18:33:53.000Z,1.60
2023-04-29T18:36:21.362Z,1.30
2023-04-29T18:38:47.805Z,1.50
2023-04-29T18:41:14.460Z,1.05
2023-04-29T18:43:41.260Z,1.15
2023-04-29T18:46:07.985Z,1.80
2023-04-29T18:48:35.931Z,1.05
2023-04-29T18:51:04.359Z,1.30
2023-04-29T18:53:31.494Z,1.35
2023-04-29T18:55:57.879Z,1.70
2023-04-29T18:58:27.234Z,1.58
2023-04-29T19:00:53.805Z,1.23
2023-04-29T19:03:20.940Z,0.95
2023-04-29T19:05:48.195Z,0.88
2023-04-29T19:08:16.393Z,1.10
2023-04-29T19:10:43.972Z,0.90
2023-04-29T19:13:11.025Z,1.00
2023-04-29T19:15:37.451Z,1.02
2023-04-29T19:18:04.930Z,1.10
2023-04-29T19:20:31.705Z,1.25
2023-04-29T19:22:58.088Z,1.65
2023-04-29T19:25:26.334Z,1.67
2023-04-29T19:27:53.152Z,1.60
2023-04-29T19:30:19.785Z,1.70
2023-04-29T19:32:46.995Z,2.13
2023-04-29T19:35:13.477Z,2.05
2023-04-29T19:37:40.302Z,1.52
2023-04-29T19:40:08.977Z,1.95
2023-04-29T19:42:35.459Z,1.80
2023-04-29T19:45:01.941Z,2.20
2023-04-29T19:47:28.361Z,2.13
2023-04-29T19:49:54.999Z,2.10
2023-04-29T19:52:21.932Z,2.50
2023-04-29T19:54:48.379Z,1.73
2023-04-29T19:57:14.744Z,2.40
2023-04-29T19:59:41.133Z,2.50
2023-04-29T20:02:07.597Z,2.55
2023-04-29T20:04:34.852Z,2.60
2023-04-29T20:07:01.425Z,3.28
2023-04-29T20:09:27.962Z,2.50
2023-04-29T20:11:54.284Z,2.42
2023-04-29T20:14:21.100Z,2.35
2023-04-29T20:16:47.850Z,3.05
2023-04-29T20:19:14.354Z,2.72
2023-04-29T20:21:41.091Z,3.55
2023-04-29T20:24:08.080Z,3.05
2023-04-29T20:26:34.440Z,2.38
2023-04-29T20:29:00.889Z,3.10
2023-04-29T20:31:27.254Z,3.15
2023-04-29T20:33:53.794Z,3.20
2023-04-29T20:36:20.935Z,3.42
2023-04-29T20:38:49.133Z,3.78
2023-04-29T20:41:16.248Z,3.38
2023-04-29T20:43:42.833Z,3.63
2023-04-29T20:46:09.229Z,3.47
2023-04-29T20:48:35.699Z,3.47
2023-04-29T20:51:02.158Z,3.17
2023-04-29T20:53:28.803Z,3.42
2023-04-29T20:55:55.112Z,2.13
2023-04-29T20:58:21.652Z,3.38
2023-04-29T21:00:48.201Z,1.95
2023-04-29T21:03:14.537Z,2.53
2023-04-29T21:05:40.912Z,4.00
2023-04-29T21:08:07.430Z,3.92
2023-04-29T21:10:33.782Z,3.72
2023-04-29T21:13:00.131Z,1.50
2023-04-29T21:15:27.126Z,3.13
2023-04-29T21:17:53.638Z,4.78
2023-04-29T21:20:20.148Z,4.10
2023-04-29T21:22:46.657Z,2.85
2023-04-29T21:25:13.157Z,4.38
2023-04-29T21:27:39.471Z,3.58
2023-04-29T21:30:06.213Z,2.85
2023-04-29T21:32:33.680Z,3.22
2023-04-29T21:35:00.217Z,4.05
2023-04-29T21:37:26.541Z,4.75
2023-04-29T21:39:53.196Z,4.10
2023-04-29T21:42:23.167Z,4.85
2023-04-29T21:44:49.651Z,4.97
2023-04-29T21:47:16.435Z,4.53
2023-04-29T21:49:42.802Z,4.18
2023-04-29T21:52:09.289Z,6.03
2023-04-29T21:54:35.887Z,4.72
2023-04-29T21:57:03.010Z,5.40
2023-04-29T21:59:34.472Z,4.18
2023-04-29T22:02:01.260Z,4.00
2023-04-29T22:04:31.041Z,4.32
2023-04-29T22:06:57.802Z,5.13
2023-04-29T22:09:25.926Z,4.15
2023-04-29T22:11:52.453Z,3.97
2023-04-29T22:14:18.857Z,4.15
2023-04-29T22:16:45.368Z,4.93
2023-04-29T22:19:11.827Z,4.70
2023-04-29T22:21:40.541Z,4.78
2023-04-29T22:24:06.950Z,5.65
2023-04-29T22:26:33.278Z,4.90
2023-04-29T22:28:59.733Z,4.07
2023-04-29T22:31:26.907Z,5.88
2023-04-29T22:33:53.492Z,5.50
2023-04-29T22:36:19.793Z,5.30
2023-04-29T22:38:46.155Z,3.20
2023-04-29T22:41:13.011Z,5.00
2023-04-29T22:43:39.377Z,5.10
2023-04-29T22:46:05.729Z,4.13
2023-04-29T22:48:32.116Z,4.28
2023-04-29T22:51:03.782Z,5.90
2023-04-29T22:53:30.110Z,5.78
2023-04-29T22:55:57.313Z,4.68
2023-04-29T22:58:27.220Z,4.38
2023-04-29T23:00:56.435Z,4.07
2023-04-29T23:03:22.980Z,5.60
2023-04-29T23:05:49.340Z,5.50
2023-04-29T23:08:15.841Z,3.33
2023-04-29T23:10:46.575Z,5.57
2023-04-29T23:13:13.184Z,4.05
2023-04-29T23:15:39.543Z,4.88
2023-04-29T23:18:06.114Z,3.83
2023-04-29T23:20:32.702Z,2.72
2023-04-29T23:22:59.317Z,3.55
2023-04-29T23:25:25.812Z,4.00
2023-04-29T23:27:52.206Z,4.28
2023-04-29T23:30:18.532Z,5.88
2023-04-29T23:32:44.886Z,7.35
2023-04-29T23:35:12.005Z,3.92
2023-04-29T23:37:38.604Z,2.83
2023-04-29T23:40:05.953Z,6.55
2023-04-29T23:42:32.406Z,2.65
2023-04-29T23:44:58.819Z,5.25
2023-04-29T23:47:25.314Z,7.57
2023-04-29T23:49:51.830Z,8.98
2023-04-29T23:52:18.337Z,6.63
2023-04-29T23:54:44.665Z,7.82
2023-04-29T23:57:11.551Z,4.97
2023-04-29T23:59:37.978Z,6.68
